Time;durP1;ratioP1;P1;durP2;ratioP2;P2;SDS_P1;SDS_P2;PMS_P1;PMS_P2;Temp;Humidity;BMP_temperature;BMP_pressure;BME280_temperature;BME280_humidity;BME280_pressure;Samples;Min_cycle;Max_cycle;Signal;HPM_P1;HPM_P2
2021/06/02 00:02:12;;;;;;;22.05;16.10;;;;;;;26.71;35.82;101227.91;5013161;28;20046;-74
2021/06/02 00:04:48;;;;;;;20.20;16.00;;;;;;;26.28;36.69;101233.75;5012816;28;20021;-74
2021/06/02 00:07:21;;;;;;;22.83;17.88;;;;;;;26.28;36.53;101233.75;5011545;28;20022;-74
2021/06/02 00:09:48;;;;;;;19.95;16.30;;;;;;;26.20;36.63;101234.22;5021025;28;20021;-74
2021/06/02 00:12:14;;;;;;;19.77;16.08;;;;;;;26.00;36.70;101231.13;5031952;28;20057;-74
2021/06/02 00:14:40;;;;;;;23.83;16.27;;;;;;;25.77;37.35;101228.81;5030719;28;20068;-75
2021/06/02 00:17:07;;;;;;;21.70;17.10;;;;;;;25.63;37.85;101234.44;5041765;28;20052;-74
2021/06/02 00:19:33;;;;;;;25.67;17.85;;;;;;;25.49;38.36;101228.88;5051683;28;20017;-74
2021/06/02 00:22:00;;;;;;;25.42;18.35;;;;;;;25.44;38.37;101227.28;5051676;28;20027;-75
2021/06/02 00:24:27;;;;;;;20.92;16.55;;;;;;;25.44;38.39;101221.69;5052100;28;20083;-87
2021/06/02 00:26:55;;;;;;;22.55;16.25;;;;;;;25.46;38.67;101227.66;5051842;28;20078;-74
2021/06/02 00:29:25;;;;;;;24.33;17.67;;;;;;;25.56;38.44;101215.66;5051534;28;20067;-74
2021/06/02 00:31:52;;;;;;;24.35;16.75;;;;;;;25.71;38.24;101216.41;5051659;28;20021;-75
2021/06/02 00:34:19;;;;;;;21.55;16.58;;;;;;;25.80;37.96;101214.00;5051556;28;20500;-74
2021/06/02 00:36:45;;;;;;;22.88;17.05;;;;;;;25.86;38.24;101217.97;5051531;28;20021;-74
2021/06/02 00:39:12;;;;;;;20.55;15.45;;;;;;;25.95;37.77;101211.94;5051439;28;20036;-74
2021/06/02 00:41:39;;;;;;;31.58;17.58;;;;;;;26.00;37.87;101215.13;5051531;28;20106;-74
2021/06/02 00:44:06;;;;;;;20.58;15.57;;;;;;;25.99;37.58;101212.72;5049103;28;20025;-82
2021/06/02 00:46:34;;;;;;;24.13;16.08;;;;;;;26.06;37.43;101203.47;5051578;28;20025;-75
2021/06/02 00:49:01;;;;;;;22.63;16.08;;;;;;;26.06;37.75;101204.28;5053577;28;20505;-73
2021/06/02 00:51:27;;;;;;;20.17;15.77;;;;;;;25.89;37.93;101193.97;5055185;28;20021;-74
2021/06/02 00:53:54;;;;;;;25.10;17.08;;;;;;;25.67;38.76;101190.44;5055084;28;20013;-74
2021/06/02 00:56:29;;;;;;;23.23;15.82;;;;;;;25.64;38.58;101188.47;5053689;28;20074;-74
2021/06/02 00:58:59;;;;;;;20.35;15.70;;;;;;;25.60;38.99;101191.25;5055034;28;20475;-75
2021/06/02 01:01:25;;;;;;;23.98;16.92;;;;;;;25.59;38.71;101198.06;5052466;28;20467;-74
2021/06/02 01:03:55;;;;;;;25.48;17.00;;;;;;;25.55;39.02;101194.50;5054919;28;20036;-74
2021/06/02 01:06:21;;;;;;;23.10;16.27;;;;;;;25.66;38.76;101188.84;5054841;28;20028;-74
2021/06/02 01:08:47;;;;;;;22.77;16.42;;;;;;;25.88;38.74;101183.97;5054798;28;20391;-77
2021/06/02 01:11:14;;;;;;;26.27;16.58;;;;;;;25.90;38.61;101189.97;5054778;28;20066;-76
2021/06/02 01:13:42;;;;;;;20.98;16.38;;;;;;;25.59;39.25;101189.66;5054671;28;20035;-74
2021/06/02 01:16:08;;;;;;;21.08;16.80;;;;;;;25.82;38.81;101192.00;5054466;28;20028;-74
2021/06/02 01:18:35;;;;;;;24.63;18.40;;;;;;;25.88;38.56;101184.78;5054620;28;20167;-74
2021/06/02 01:21:02;;;;;;;31.67;18.48;;;;;;;25.77;38.65;101184.03;5054527;28;20487;-74
2021/06/02 01:23:28;;;;;;;23.27;17.70;;;;;;;25.90;38.54;101185.16;5054617;28;20027;-74
2021/06/02 01:25:54;;;;;;;24.80;17.92;;;;;;;25.64;38.92;101180.84;5054496;28;20506;-75
2021/06/02 01:28:20;;;;;;;23.02;17.98;;;;;;;25.23;40.15;101186.16;5054549;28;20036;-80
2021/06/02 01:30:46;;;;;;;25.35;18.23;;;;;;;25.62;39.35;101180.47;5054411;28;20013;-74
2021/06/02 01:33:11;;;;;;;27.70;19.15;;;;;;;25.67;38.99;101168.03;5054345;28;20027;-74
2021/06/02 01:36:04;;;;;;;28.52;20.20;;;;;;;25.80;39.11;101172.03;5054368;28;20024;-74
2021/06/02 01:39:07;;;;;;;25.30;18.73;;;;;;;25.78;39.18;101168.84;5052282;28;20028;-74
2021/06/02 01:41:51;;;;;;;24.90;19.02;;;;;;;25.80;39.13;101165.63;5052672;28;20028;-74
2021/06/02 01:44:35;;;;;;;26.38;17.38;;;;;;;25.84;38.80;101161.59;5053148;28;20017;-74
2021/06/02 01:47:06;;;;;;;25.02;19.08;;;;;;;25.88;38.72;101151.19;5035675;28;20021;-75
2021/06/02 01:50:03;;;;;;;30.88;19.08;;;;;;;25.66;39.15;101164.44;5036138;28;20017;-74
2021/06/02 01:52:53;;;;;;;31.00;19.27;;;;;;;25.48;39.65;101163.72;5051754;28;20024;-74
2021/06/02 01:55:46;;;;;;;;;;;;;;;25.71;39.18;101157.66;5053564;28;20036;-74
2021/06/02 01:58:53;;;;;;;25.27;18.08;;;;;;;25.73;39.33;101163.66;5035899;28;19919;-74
2021/06/02 02:01:46;;;;;;;27.52;18.73;;;;;;;25.79;39.38;101150.84;5042329;28;20479;-74
2021/06/02 02:04:32;;;;;;;24.45;18.95;;;;;;;25.85;38.92;101157.63;5034071;28;20033;-74
2021/06/02 02:07:24;;;;;;;25.52;17.50;;;;;;;25.87;38.83;101146.78;5052733;28;20036;-74
2021/06/02 02:10:27;;;;;;;28.27;18.20;;;;;;;25.91;38.89;101153.16;5051699;28;20056;-76
2021/06/02 02:13:11;;;;;;;23.20;17.35;;;;;;;25.98;38.66;101155.13;5051902;28;20076;-74
2021/06/02 02:15:49;;;;;;;24.55;18.05;;;;;;;25.99;38.96;101149.09;5037242;28;20044;-73
2021/06/02 02:18:29;;;;;;;24.20;18.88;;;;;;;26.02;38.71;101155.91;5015712;28;20079;-73
2021/06/02 02:21:19;;;;;;;27.02;18.67;;;;;;;26.10;38.84;101151.06;5033961;28;20112;-73
2021/06/02 02:23:56;;;;;;;;;;;;;;;26.18;38.25;101152.63;5034391;28;20025;-73
2021/06/02 02:26:30;;;;;;;23.30;17.92;;;;;;;26.10;38.88;101142.66;5033846;28;19916;-73
2021/06/02 02:29:32;;;;;;;25.23;19.52;;;;;;;26.07;38.69;101149.91;5033968;28;20039;-73
2021/06/02 02:32:19;;;;;;;30.15;19.85;;;;;;;26.08;38.56;101137.47;5033823;28;20092;-73
2021/06/02 02:34:53;;;;;;;29.23;19.45;;;;;;;26.10;38.75;101139.88;5033774;28;20029;-73
2021/06/02 02:38:03;;;;;;;27.10;19.58;;;;;;;25.98;38.99;101138.31;5033694;28;20084;-73
2021/06/02 02:40:31;;;;;;;26.33;19.88;;;;;;;26.04;38.54;101127.50;5011864;28;20132;-73
2021/06/02 02:43:12;;;;;;;25.58;18.60;;;;;;;26.09;38.63;101129.88;5015750;28;20025;-73
2021/06/02 02:45:57;;;;;;;21.95;18.00;;;;;;;26.04;38.62;101131.09;5033267;28;20037;-73
2021/06/02 02:48:53;;;;;;;28.02;19.00;;;;;;;26.00;38.96;101125.53;5033435;28;20029;-73
2021/06/02 02:51:46;;;;;;;23.15;19.02;;;;;;;26.00;38.57;101124.75;5033444;28;20025;-74
2021/06/02 02:54:24;;;;;;;24.00;19.20;;;;;;;25.95;38.58;101125.16;5015707;28;20029;-74
2021/06/02 02:57:02;;;;;;;29.85;20.70;;;;;;;25.95;39.00;101122.34;5015661;28;20696;-73
2021/06/02 02:59:33;;;;;;;26.85;20.25;;;;;;;25.93;38.78;101119.19;5033298;28;20025;-84
2021/06/02 03:02:15;;;;;;;24.10;17.38;;;;;;;25.72;39.21;101120.88;5033194;28;20036;-73
2021/06/02 03:04:46;;;;;;;20.55;18.33;;;;;;;25.55;39.50;101137.72;5014429;28;20652;-73
2021/06/02 03:07:13;;;;;;;23.63;20.30;;;;;;;25.91;39.04;101127.16;5032812;28;20036;-73
2021/06/02 03:09:49;;;;;;;27.45;20.40;;;;;;;25.88;38.84;101120.41;5033022;28;20029;-73
2021/06/02 03:12:30;;;;;;;31.75;21.23;;;;;;;25.93;38.67;101124.78;5032099;28;20417;-73
2021/06/02 03:15:18;;;;;;;30.23;21.60;;;;;;;25.92;38.65;101121.19;5032981;28;20056;-73
2021/06/02 03:18:27;;;;;;;28.25;19.73;;;;;;;25.69;39.37;101112.47;5032683;28;20050;-73
2021/06/02 03:21:08;;;;;;;25.50;21.40;;;;;;;25.84;38.86;101116.81;5022479;28;20061;-74
2021/06/02 03:24:00;;;;;;;25.98;20.83;;;;;;;25.79;38.83;101105.25;5032843;28;20017;-73
2021/06/02 03:26:29;;;;;;;28.35;19.65;;;;;;;25.75;39.16;101108.06;5032898;28;20099;-73
2021/06/02 03:29:13;;;;;;;27.90;21.13;;;;;;;25.36;39.91;101111.81;5032837;28;20022;-73
2021/06/02 03:32:00;;;;;;;26.88;20.92;;;;;;;25.61;39.40;101114.50;5032779;28;20032;-74
2021/06/02 03:34:27;;;;;;;27.98;20.67;;;;;;;25.61;39.36;101106.09;5032769;28;20022;-78
2021/06/02 03:37:30;;;;;;;25.52;22.70;;;;;;;25.55;39.24;101109.75;5032663;28;20025;-73
2021/06/02 03:40:21;;;;;;;24.73;21.75;;;;;;;25.52;39.28;101118.94;5032523;28;20029;-73
2021/06/02 03:42:52;;;;;;;28.95;23.10;;;;;;;25.46;39.56;101124.16;5032677;28;20025;-81
2021/06/02 03:46:02;;;;;;;30.80;22.13;;;;;;;25.54;39.46;101124.91;5032867;28;20026;-74
2021/06/02 03:48:41;;;;;;;27.27;21.98;;;;;;;25.56;39.41;101123.34;5032778;28;20112;-73
2021/06/02 03:51:51;;;;;;;33.75;22.60;;;;;;;25.48;39.95;101129.38;5032535;28;20030;-73
2021/06/02 03:54:36;;;;;;;29.02;22.15;;;;;;;25.49;39.76;101122.56;5032597;28;20036;-74
2021/06/02 03:57:33;;;;;;;31.20;22.60;;;;;;;25.39;40.02;101118.59;5032575;28;20038;-73
2021/06/02 04:00:10;;;;;;;26.55;20.83;;;;;;;25.44;39.63;101118.19;5032586;28;20490;-85
2021/06/02 04:03:21;;;;;;;33.38;22.23;;;;;;;25.44;39.86;101121.75;5032565;28;20025;-73
2021/06/02 04:06:12;;;;;;;28.65;22.75;;;;;;;25.29;40.12;101123.03;4952097;29;20122;-73
2021/06/02 04:08:48;;;;;;;32.85;22.48;;;;;;;25.30;40.19;101127.41;4936185;29;20823;-86
2021/06/02 04:11:19;;;;;;;29.25;21.48;;;;;;;25.36;40.07;101125.00;5012918;28;20100;-73
2021/06/02 04:14:43;;;;;;;31.02;21.15;;;;;;;25.27;40.30;101127.44;5032354;28;20079;-73
2021/06/02 04:17:10;;;;;;;32.42;20.83;;;;;;;25.35;40.15;101124.22;5000589;28;20128;-73
2021/06/02 04:19:36;;;;;;;28.02;20.40;;;;;;;25.35;39.98;101123.41;5032215;28;20032;-74
2021/06/02 04:22:06;;;;;;;26.75;20.77;;;;;;;25.29;40.31;101125.03;5032321;28;20026;-73
2021/06/02 04:24:32;;;;;;;;;;;;;;;25.20;40.47;101125.44;5035904;28;20025;-75
2021/06/02 04:26:59;;;;;;;31.23;20.98;;;;;;;25.26;40.24;101126.63;5036121;28;19913;-84
2021/06/02 04:29:26;;;;;;;25.27;19.83;;;;;;;25.30;39.97;101124.63;5036157;28;20029;-73
2021/06/02 04:31:55;;;;;;;30.02;22.33;;;;;;;25.28;40.49;101124.22;5035996;28;20032;-74
2021/06/02 04:34:23;;;;;;;27.20;19.80;;;;;;;25.19;40.32;101121.06;5036055;28;20100;-73
2021/06/02 04:36:56;;;;;;;35.42;20.02;;;;;;;25.22;40.39;101114.66;5035946;28;20483;-74
2021/06/02 04:39:23;;;;;;;32.85;22.33;;;;;;;25.15;40.76;101114.66;5035845;28;20113;-77
2021/06/02 04:41:55;;;;;;;36.00;22.10;;;;;;;25.13;40.66;101117.88;5035793;28;20361;-86
2021/06/02 04:44:23;;;;;;;29.67;20.80;;;;;;;25.10;40.62;101131.88;5035812;28;20052;-73
2021/06/02 04:46:49;;;;;;;25.00;21.55;;;;;;;24.98;41.00;101126.66;5035782;28;20032;-74
2021/06/02 04:49:16;;;;;;;39.13;21.40;;;;;;;25.11;41.31;101125.09;5035825;28;20026;-73
2021/06/02 04:52:00;;;;;;;28.48;20.25;;;;;;;25.09;41.26;101127.47;5035673;28;20032;-73
2021/06/02 04:54:53;;;;;;;35.50;19.90;;;;;;;25.16;41.36;101139.47;5035850;28;20113;-73
2021/06/02 04:57:43;;;;;;;32.90;21.10;;;;;;;25.07;41.53;101133.47;5035618;28;20387;-74
2021/06/02 05:00:38;;;;;;;31.88;21.00;;;;;;;25.04;41.73;101133.47;5035525;28;20059;-73
2021/06/02 05:03:40;;;;;;;23.40;19.40;;;;;;;25.14;41.42;101127.84;5035542;28;20030;-73
2021/06/02 05:06:08;;;;;;;30.38;20.40;;;;;;;25.08;41.53;101128.66;5017763;28;20039;-85
2021/06/02 05:09:12;;;;;;;31.20;19.55;;;;;;;25.08;41.53;101126.66;5035372;28;20475;-73
2021/06/02 05:12:14;;;;;;;25.77;18.85;;;;;;;25.08;41.40;101120.28;5035412;28;20032;-73
2021/06/02 05:15:24;;;;;;;28.88;19.60;;;;;;;25.12;41.32;101116.28;5017484;28;20480;-73
2021/06/02 05:18:11;;;;;;;25.25;18.58;;;;;;;25.15;41.12;101111.88;5035002;28;20069;-74
2021/06/02 05:24:20;;;;;;;29.52;18.92;;;;;;;24.99;41.39;101126.25;5035315;28;20088;-77
2021/06/02 05:27:01;;;;;;;27.73;18.67;;;;;;;25.13;41.00;101111.50;5035214;28;20556;-73
2021/06/02 05:29:44;;;;;;;26.08;17.52;;;;;;;25.20;41.10;101116.25;5017263;28;20030;-73
2021/06/02 05:32:33;;;;;;;27.70;18.25;;;;;;;25.22;41.28;101113.84;5035153;28;20426;-74
2021/06/02 05:35:36;;;;;;;25.03;18.00;;;;;;;25.23;41.06;101116.25;5034081;28;20051;-74
2021/06/02 05:38:19;;;;;;;32.33;18.02;;;;;;;25.15;41.36;101115.47;5034911;28;20274;-73
2021/06/02 05:41:10;;;;;;;29.77;17.88;;;;;;;25.08;41.16;101117.47;5035022;28;20117;-73
2021/06/02 05:44:19;;;;;;;25.58;17.05;;;;;;;25.13;40.95;101119.88;5017124;28;20033;-73
2021/06/02 05:47:22;;;;;;;22.80;16.17;;;;;;;25.16;40.87;101128.28;5034649;28;20032;-73
2021/06/02 05:50:12;;;;;;;27.25;18.45;;;;;;;24.98;41.43;101135.06;5034625;28;20025;-72
2021/06/02 05:52:43;;;;;;;;;;;;;;;25.18;41.15;101136.25;5043621;28;20120;-73
2021/06/02 05:56:09;;;;;;;28.45;16.77;;;;;;;25.46;40.45;101135.34;5034134;28;19959;-73
2021/06/02 05:59:00;;;;;;;26.40;16.20;;;;;;;25.19;41.20;101132.25;5006281;28;20038;-73
2021/06/02 06:01:49;;;;;;;26.85;15.80;;;;;;;25.29;40.75;101117.44;5016898;28;20380;-85
2021/06/02 06:04:52;;;;;;;22.58;17.13;;;;;;;25.46;40.49;101126.94;5036741;28;20108;-74
2021/06/02 06:07:38;;;;;;;21.77;15.95;;;;;;;24.94;41.96;101123.91;5037770;28;20029;-82
2021/06/02 06:10:17;;;;;;;21.77;15.43;;;;;;;24.88;41.99;101129.09;5038539;28;20111;-74
2021/06/02 06:12:46;;;;;;;24.90;15.10;;;;;;;24.92;41.95;101131.88;5038035;28;20086;-75
2021/06/02 06:15:55;;;;;;;17.10;14.00;;;;;;;25.22;41.57;101136.22;5051750;28;20017;-75
2021/06/02 06:18:48;;;;;;;28.30;14.73;;;;;;;25.43;40.62;101122.97;5011886;28;20195;-76
2021/06/02 06:21:55;;;;;;;29.15;14.68;;;;;;;25.46;40.63;101130.53;5013934;28;20022;-74
2021/06/02 06:24:27;;;;;;;22.60;13.90;;;;;;;25.71;39.96;101119.28;5011242;28;20030;-74
2021/06/02 06:27:07;;;;;;;23.45;13.98;;;;;;;25.69;39.78;101127.28;5012678;28;20018;-73
2021/06/02 06:29:56;;;;;;;;;;;;;;;25.76;40.04;101120.84;5008074;28;20457;-73
2021/06/02 06:32:24;;;;;;;20.27;13.52;;;;;;;25.58;39.79;101117.31;4997152;28;19917;-75
2021/06/02 06:34:52;;;;;;;16.60;13.23;;;;;;;25.69;39.97;101130.06;4997561;28;20604;-73
2021/06/02 06:37:19;;;;;;;22.23;13.10;;;;;;;25.93;39.34;101128.38;4996792;28;20062;-75
2021/06/02 06:39:56;;;;;;;16.77;12.60;;;;;;;25.91;39.54;101132.75;4998349;28;20038;-74
2021/06/02 06:42:25;;;;;;;21.13;13.50;;;;;;;26.02;39.43;101129.91;4997126;28;20034;-75
2021/06/02 06:44:58;;;;;;;23.10;14.02;;;;;;;26.26;39.03;101134.56;4995504;28;20034;-74
2021/06/02 06:47:25;;;;;;;18.10;11.95;;;;;;;26.53;38.34;101129.19;4996011;28;20025;-73
2021/06/02 06:49:54;;;;;;;17.48;12.02;;;;;;;26.65;38.33;101120.25;5010129;28;21235;-74
2021/06/02 06:52:23;;;;;;;16.50;12.00;;;;;;;26.44;37.80;101120.44;4998682;28;20092;-74
2021/06/02 06:54:52;;;;;;;21.23;11.82;;;;;;;26.44;37.50;101120.44;5006858;28;20053;-74
2021/06/02 06:57:19;;;;;;;21.30;12.00;;;;;;;26.43;37.45;101116.03;5004057;28;20018;-74
2021/06/02 06:59:46;;;;;;;19.27;12.80;;;;;;;26.57;36.80;101129.13;5012652;28;20388;-74
2021/06/02 07:02:11;;;;;;;20.85;13.32;;;;;;;26.65;36.95;101130.66;5013375;28;20026;-75
2021/06/02 07:04:38;;;;;;;17.23;11.82;;;;;;;26.65;36.99;101127.88;5012811;28;20045;-74
2021/06/02 07:07:07;;;;;;;23.67;14.45;;;;;;;26.76;36.72;101131.38;5011607;28;20109;-74
2021/06/02 07:09:33;;;;;;;16.67;11.70;;;;;;;26.89;36.42;101135.25;5012827;28;20018;-75
2021/06/02 07:11:59;;;;;;;23.35;13.15;;;;;;;27.23;35.98;101140.94;5010215;28;20033;-78
2021/06/02 07:14:29;;;;;;;25.73;14.40;;;;;;;27.40;36.12;101132.72;5009684;28;20021;-74
2021/06/02 07:16:57;;;;;;;15.55;11.18;;;;;;;27.73;35.71;101133.94;5029516;28;20064;-75
2021/06/02 07:19:23;;;;;;;26.77;13.32;;;;;;;27.96;35.63;101130.41;5034801;28;20040;-75
2021/06/02 07:21:50;;;;;;;23.52;12.48;;;;;;;28.19;35.33;101127.69;5052727;28;20078;-74
2021/06/02 07:24:18;;;;;;;24.52;12.48;;;;;;;28.34;34.94;101131.88;5052676;28;20111;-77
2021/06/02 07:26:44;;;;;;;20.35;12.32;;;;;;;28.42;34.88;101124.13;5052811;28;20021;-77
2021/06/02 07:29:10;;;;;;;29.35;12.27;;;;;;;28.41;34.38;101125.34;5052345;28;20028;-78
2021/06/02 07:31:35;;;;;;;19.10;12.00;;;;;;;28.49;33.59;101126.84;5034667;28;20479;-75
2021/06/02 07:34:01;;;;;;;25.92;12.80;;;;;;;28.35;33.57;101130.66;5052023;28;20129;-78
2021/06/02 07:36:26;;;;;;;21.83;12.23;;;;;;;28.47;33.44;101129.25;5051040;28;20499;-75
2021/06/02 07:38:52;;;;;;;16.95;12.18;;;;;;;28.52;33.31;101131.59;5027563;28;20179;-74
2021/06/02 07:41:18;;;;;;;19.52;11.13;;;;;;;28.47;33.37;101134.88;5048825;28;20028;-74
2021/06/02 07:43:43;;;;;;;24.35;12.43;;;;;;;28.57;33.06;101133.91;5035073;28;20111;-81
2021/06/02 07:46:09;;;;;;;20.05;11.93;;;;;;;28.51;32.51;101129.22;5016918;28;20055;-75
2021/06/02 07:48:34;;;;;;;17.63;11.90;;;;;;;28.25;33.18;101134.38;5016468;28;20101;-75
2021/06/02 07:51:00;;;;;;;36.22;12.88;;;;;;;28.39;33.14;101130.59;5033924;28;20432;-75
2021/06/02 07:53:26;;;;;;;18.65;11.35;;;;;;;28.70;32.58;101142.50;5016644;28;20033;-75
2021/06/02 07:55:53;;;;;;;14.52;10.63;;;;;;;28.59;32.77;101137.09;5035380;28;20028;-75
2021/06/02 07:58:19;;;;;;;18.70;11.13;;;;;;;28.58;33.15;101141.13;5037590;28;20455;-75
2021/06/02 08:00:44;;;;;;;21.85;12.68;;;;;;;28.66;32.74;101141.81;5021427;28;20035;-75
2021/06/02 08:03:10;;;;;;;22.13;11.10;;;;;;;28.62;32.69;101132.63;5039106;28;20029;-76
2021/06/02 08:05:35;;;;;;;18.25;12.43;;;;;;;28.72;32.57;101135.25;5021417;28;20700;-75
2021/06/02 08:08:01;;;;;;;21.73;11.52;;;;;;;28.62;32.79;101141.06;5038504;28;20017;-74
2021/06/02 08:10:26;;;;;;;37.45;13.80;;;;;;;28.77;32.80;101133.97;5038820;28;20040;-75
2021/06/02 08:12:52;;;;;;;22.92;12.75;;;;;;;28.79;32.40;101139.16;5037543;28;20025;-74
2021/06/02 08:15:18;;;;;;;19.50;11.35;;;;;;;28.86;32.37;101141.84;5038871;28;20035;-74
2021/06/02 08:17:44;;;;;;;20.05;10.45;;;;;;;28.90;32.13;101142.59;5037662;28;20045;-77
2021/06/02 08:20:13;;;;;;;20.63;11.95;;;;;;;28.90;32.06;101134.16;5022320;28;20494;-78
2021/06/02 08:22:39;;;;;;;17.88;11.27;;;;;;;28.87;32.43;101140.59;5055111;28;20021;-78
2021/06/02 08:25:07;;;;;;;25.20;11.82;;;;;;;29.05;31.56;101143.94;5037278;28;20099;-75
2021/06/02 08:27:33;;;;;;;21.10;11.45;;;;;;;28.99;31.85;101142.84;5055347;28;20502;-76
2021/06/02 08:29:58;;;;;;;22.95;12.45;;;;;;;28.94;31.88;101140.50;5052139;28;20032;-76
2021/06/02 08:32:24;;;;;;;20.40;12.07;;;;;;;29.20;31.54;101145.25;5035107;28;20553;-76
2021/06/02 08:34:51;;;;;;;15.27;10.15;;;;;;;29.12;31.58;101141.00;5036664;28;20082;-77
2021/06/02 08:37:17;;;;;;;24.73;12.27;;;;;;;29.33;31.25;101147.44;5054866;28;20360;-76
2021/06/02 08:39:43;;;;;;;34.90;13.43;;;;;;;29.19;31.37;101146.47;5054299;28;20021;-76
2021/06/02 08:42:09;;;;;;;19.83;11.57;;;;;;;29.29;31.55;101151.09;5054630;28;20098;-78
2021/06/02 08:44:36;;;;;;;28.05;12.45;;;;;;;29.51;31.30;101145.06;5054556;28;20116;-77
2021/06/02 08:47:03;;;;;;;17.17;10.48;;;;;;;29.61;31.17;101151.69;5054611;28;20032;-76
2021/06/02 08:49:29;;;;;;;24.92;12.73;;;;;;;29.68;30.82;101151.56;5054456;28;20031;-77
2021/06/02 08:51:55;;;;;;;24.40;12.27;;;;;;;29.98;30.33;101140.00;5050979;28;20025;-76
2021/06/02 08:54:22;;;;;;;20.35;11.80;;;;;;;30.00;30.22;101142.38;5055138;28;20028;-76
2021/06/02 08:56:48;;;;;;;18.77;10.60;;;;;;;29.90;30.25;101138.59;5055252;28;20033;-76
2021/06/02 08:59:18;;;;;;;18.75;11.00;;;;;;;29.81;30.07;101146.84;5053725;28;20036;-77
2021/06/02 09:01:45;;;;;;;21.27;12.00;;;;;;;29.88;30.55;101146.69;5038678;28;20028;-76
2021/06/02 09:04:11;;;;;;;28.60;12.02;;;;;;;30.00;30.03;101140.38;5038607;28;20104;-76
2021/06/02 09:06:41;;;;;;;21.23;11.38;;;;;;;29.82;30.24;101137.94;5054568;28;20029;-76
2021/06/02 09:09:08;;;;;;;22.42;11.85;;;;;;;29.75;30.03;101143.75;5050429;28;20025;-76
2021/06/02 09:12:12;;;;;;;18.23;12.15;;;;;;;29.67;29.94;101139.50;5040556;28;20380;-76
2021/06/02 09:14:38;;;;;;;27.85;11.93;;;;;;;29.92;29.92;101138.16;5034437;28;20034;-77
2021/06/02 09:17:06;;;;;;;22.65;12.38;;;;;;;29.89;30.13;101137.00;5045326;28;20033;-77
2021/06/02 09:19:45;;;;;;;24.73;11.65;;;;;;;29.85;29.58;101136.28;5053415;28;20600;-77
2021/06/02 09:22:14;;;;;;;24.60;13.00;;;;;;;29.69;30.15;101137.03;5051273;28;20044;-76
2021/06/02 09:25:03;;;;;;;20.48;11.25;;;;;;;29.71;30.01;101128.16;5053452;28;20164;-77
2021/06/02 09:27:50;;;;;;;23.30;12.60;;;;;;;29.62;30.00;101120.28;5045598;28;20017;-77
2021/06/02 09:30:20;;;;;;;48.40;43.22;;;;;;;29.54;29.92;101130.13;5053527;28;20531;-76
2021/06/02 09:32:49;;;;;;;23.15;13.35;;;;;;;29.49;29.65;101130.63;5052462;28;20024;-75
2021/06/02 09:35:15;;;;;;;18.63;11.55;;;;;;;29.41;30.05;101141.22;5052221;28;20029;-77
2021/06/02 09:37:51;;;;;;;23.38;12.32;;;;;;;29.37;30.09;101140.50;5051639;28;20037;-77
2021/06/02 09:40:24;;;;;;;26.60;13.50;;;;;;;29.47;30.07;101131.06;5049643;28;20371;-76
2021/06/02 09:42:50;;;;;;;22.50;13.32;;;;;;;29.59;29.68;101126.78;5048692;28;20383;-76
2021/06/02 09:45:16;;;;;;;23.95;12.00;;;;;;;29.76;29.33;101127.63;5053613;28;20025;-85
2021/06/02 09:47:56;;;;;;;17.83;12.50;;;;;;;29.87;29.34;101130.22;5053756;28;20099;-78
2021/06/02 09:50:39;;;;;;;22.92;12.90;;;;;;;30.07;29.02;101128.94;5052768;28;20139;-78
2021/06/02 09:53:07;;;;;;;21.33;12.48;;;;;;;30.10;29.40;101116.03;5033850;28;20056;-77
2021/06/02 09:55:41;;;;;;;24.80;13.35;;;;;;;30.19;28.84;101107.75;5053272;28;20021;-77
2021/06/02 09:58:06;;;;;;;22.70;11.80;;;;;;;30.20;29.12;101120.63;5047555;28;20025;-77
2021/06/02 10:00:38;;;;;;;19.17;12.60;;;;;;;29.87;28.88;101113.34;5052875;28;20079;-77
2021/06/02 10:03:13;;;;;;;19.35;12.13;;;;;;;30.13;28.68;101106.69;5053221;28;20033;-76
2021/06/02 10:05:46;;;;;;;21.45;10.93;;;;;;;30.04;28.96;101109.31;5050674;28;20029;-78
2021/06/02 10:08:32;;;;;;;25.23;13.20;;;;;;;29.79;29.28;101107.84;5053118;28;20478;-77
2021/06/02 10:11:12;;;;;;;20.45;11.60;;;;;;;30.00;29.18;101105.75;5014745;28;20467;-77
2021/06/02 10:13:39;;;;;;;22.83;11.70;;;;;;;29.86;29.01;101114.56;5032287;28;20119;-76
2021/06/02 10:16:05;;;;;;;19.48;11.77;;;;;;;29.67;28.76;101114.16;5031944;28;20055;-77
2021/06/02 10:18:33;;;;;;;32.72;13.38;;;;;;;29.57;29.04;101120.81;5031983;28;20092;-78
2021/06/02 10:21:02;;;;;;;21.48;10.65;;;;;;;29.63;29.48;101109.84;5031513;28;20029;-77
2021/06/02 10:23:30;;;;;;;22.33;13.10;;;;;;;29.72;29.58;101113.66;5032132;28;20383;-77
2021/06/02 10:25:57;;;;;;;36.03;13.63;;;;;;;29.86;29.10;101100.47;5032020;28;20021;-77
2021/06/02 10:28:25;;;;;;;19.00;12.85;;;;;;;29.74;29.08;101099.91;5031936;28;20021;-76
2021/06/02 10:30:52;;;;;;;16.23;11.40;;;;;;;29.85;29.48;101099.66;5033733;28;20479;-76
2021/06/02 10:33:17;;;;;;;18.23;12.00;;;;;;;29.92;29.39;101112.78;5033526;28;20051;-77
2021/06/02 10:35:43;;;;;;;27.00;13.20;;;;;;;30.05;28.94;101108.84;5015958;28;20033;-77
2021/06/02 10:38:10;;;;;;;21.20;12.55;;;;;;;29.86;29.16;101103.31;5033700;28;20112;-77
2021/06/02 10:40:39;;;;;;;22.90;12.23;;;;;;;29.80;29.65;101094.56;5033265;28;20067;-77
2021/06/02 10:43:09;;;;;;;18.50;12.27;;;;;;;29.76;29.84;101082.56;5033945;28;20025;-77
2021/06/02 10:45:56;;;;;;;19.77;11.68;;;;;;;29.46;29.25;101083.59;5033485;28;20399;-76
2021/06/02 10:48:42;;;;;;;31.58;13.27;;;;;;;29.30;29.45;101078.72;5025551;28;20040;-76
2021/06/02 10:51:25;;;;;;;20.63;13.00;;;;;;;29.29;29.60;101082.75;5032957;28;20025;-77
2021/06/02 10:54:08;;;;;;;24.73;13.25;;;;;;;29.26;30.05;101092.09;5035666;28;20379;-76
2021/06/02 10:56:35;;;;;;;18.58;11.52;;;;;;;29.34;29.73;101087.09;5049307;28;20033;-76
2021/06/02 10:59:01;;;;;;;26.83;12.00;;;;;;;29.28;29.81;101081.97;5020239;28;20368;-76
2021/06/02 11:01:31;;;;;;;20.92;12.55;;;;;;;29.54;29.56;101071.00;5043689;28;20036;-75
2021/06/02 11:04:11;;;;;;;23.92;13.90;;;;;;;29.03;30.09;101081.69;5051197;28;20029;-75
2021/06/02 11:06:41;;;;;;;20.05;13.10;;;;;;;28.89;30.00;101077.09;5051132;28;20052;-76
2021/06/02 11:09:07;;;;;;;;;;;;;;;28.85;29.97;101087.59;5029734;28;20034;-75
2021/06/02 11:11:35;;;;;;;26.88;12.55;;;;;;;28.83;30.17;101084.44;5031198;28;19919;-76
2021/06/02 11:14:16;;;;;;;24.90;11.90;;;;;;;29.07;30.53;101075.97;5031028;28;20108;-75
2021/06/02 11:17:00;;;;;;;21.23;12.48;;;;;;;29.20;30.15;101083.34;5031113;28;20068;-75
2021/06/02 11:19:36;;;;;;;23.45;13.68;;;;;;;29.23;29.85;101084.50;5032834;28;20036;-75
2021/06/02 11:22:06;;;;;;;19.30;12.90;;;;;;;29.09;30.07;101091.19;5032923;28;20018;-75
2021/06/02 11:24:32;;;;;;;26.10;13.95;;;;;;;29.24;29.88;101072.78;5032703;28;20036;-75
2021/06/02 11:27:10;;;;;;;23.30;12.27;;;;;;;29.28;30.23;101086.81;5032411;28;20025;-76
2021/06/02 11:29:51;;;;;;;21.20;11.88;;;;;;;29.23;30.04;101082.47;5032268;28;20105;-76
2021/06/02 11:32:32;;;;;;;18.95;11.55;;;;;;;29.25;29.96;101074.41;5032311;28;20025;-75
2021/06/02 11:35:00;;;;;;;18.08;11.65;;;;;;;29.02;30.31;101071.66;5052619;28;20028;-75
2021/06/02 11:37:27;;;;;;;15.45;10.93;;;;;;;29.02;30.39;101069.66;5052572;28;20467;-76
2021/06/02 11:39:56;;;;;;;19.30;11.85;;;;;;;29.15;30.52;101064.16;5051925;28;20364;-75
2021/06/02 11:42:39;;;;;;;24.00;13.07;;;;;;;29.05;30.81;101062.34;5052551;28;20021;-75
2021/06/02 11:45:07;;;;;;;26.90;12.40;;;;;;;29.15;30.92;101071.78;5052669;28;20017;-75
2021/06/02 11:47:34;;;;;;;24.08;12.75;;;;;;;29.19;30.77;101055.66;5052820;28;20394;-75
2021/06/02 11:50:06;;;;;;;25.38;12.82;;;;;;;29.30;30.74;101061.84;5052514;28;20029;-76
2021/06/02 11:52:33;;;;;;;21.42;11.95;;;;;;;29.35;30.86;101052.09;5051986;28;20032;-75
2021/06/02 11:55:00;;;;;;;22.50;12.90;;;;;;;29.49;30.27;101054.59;5052375;28;20024;-75